sensor_id;sensor_type;location;lat;lon;timestamp;temperature;humidity
22680;DHT22;11507;44.858;10.374;2022-12-24T00:00:33;7.80;99.90
22680;DHT22;11507;44.858;10.374;2022-12-24T00:02:59;7.80;99.90
22680;DHT22;11507;44.858;10.374;2022-12-24T00:05:26;7.80;99.90
22680;DHT22;11507;44.858;10.374;2022-12-24T00:07:52;7.80;99.90
22680;DHT22;11507;44.858;10.374;2022-12-24T00:10:18;7.80;99.90
22680;DHT22;11507;44.858;10.374;2022-12-24T00:12:44;7.80;99.90
22680;DHT22;11507;44.858;10.374;2022-12-24T00:15:10;7.80;99.90
22680;DHT22;11507;44.858;10.374;2022-12-24T00:17:36;7.80;99.90
22680;DHT22;11507;44.858;10.374;2022-12-24T00:20:02;7.80;99.90
22680;DHT22;11507;44.858;10.374;2022-12-24T00:22:29;7.80;99.90
22680;DHT22;11507;44.858;10.374;2022-12-24T00:24:54;7.80;99.90
22680;DHT22;11507;44.858;10.374;2022-12-24T00:27:20;7.80;99.90
22680;DHT22;11507;44.858;10.374;2022-12-24T00:29:47;7.80;99.90
22680;DHT22;11507;44.858;10.374;2022-12-24T00:32:13;7.80;99.90
22680;DHT22;11507;44.858;10.374;2022-12-24T00:34:39;7.80;99.90
22680;DHT22;11507;44.858;10.374;2022-12-24T00:37:05;7.80;99.90
22680;DHT22;11507;44.858;10.374;2022-12-24T00:39:32;7.80;99.90
22680;DHT22;11507;44.858;10.374;2022-12-24T00:41:57;7.80;99.90
22680;DHT22;11507;44.858;10.374;2022-12-24T00:44:23;7.80;99.90
22680;DHT22;11507;44.858;10.374;2022-12-24T00:46:49;7.80;99.90
22680;DHT22;11507;44.858;10.374;2022-12-24T00:49:15;7.80;99.90
22680;DHT22;11507;44.858;10.374;2022-12-24T00:51:41;7.90;99.90
22680;DHT22;11507;44.858;10.374;2022-12-24T00:54:15;7.80;99.90
22680;DHT22;11507;44.858;10.374;2022-12-24T00:56:41;7.90;99.90
22680;DHT22;11507;44.858;10.374;2022-12-24T00:59:07;7.80;99.90
22680;DHT22;11507;44.858;10.374;2022-12-24T01:01:33;7.80;99.90
22680;DHT22;11507;44.858;10.374;2022-12-24T01:04:00;7.80;99.90
22680;DHT22;11507;44.858;10.374;2022-12-24T01:06:45;7.80;99.90
22680;DHT22;11507;44.858;10.374;2022-12-24T01:09:11;7.80;99.90
22680;DHT22;11507;44.858;10.374;2022-12-24T01:11:37;7.80;99.90
22680;DHT22;11507;44.858;10.374;2022-12-24T01:14:03;7.80;99.90
22680;DHT22;11507;44.858;10.374;2022-12-24T01:16:29;7.80;99.90
22680;DHT22;11507;44.858;10.374;2022-12-24T01:18:55;7.80;99.90
22680;DHT22;11507;44.858;10.374;2022-12-24T01:21:21;7.80;99.90
22680;DHT22;11507;44.858;10.374;2022-12-24T01:23:46;7.80;99.90
22680;DHT22;11507;44.858;10.374;2022-12-24T01:26:12;7.80;99.90
22680;DHT22;11507;44.858;10.374;2022-12-24T01:28:38;7.80;99.90
22680;DHT22;11507;44.858;10.374;2022-12-24T01:31:15;7.80;99.90
22680;DHT22;11507;44.858;10.374;2022-12-24T01:33:41;7.80;99.90
22680;DHT22;11507;44.858;10.374;2022-12-24T01:36:08;7.80;99.90
22680;DHT22;11507;44.858;10.374;2022-12-24T01:38:34;7.80;99.90
22680;DHT22;11507;44.858;10.374;2022-12-24T01:40:59;7.90;99.90
22680;DHT22;11507;44.858;10.374;2022-12-24T01:43:46;7.80;99.90
22680;DHT22;11507;44.858;10.374;2022-12-24T01:46:22;7.90;99.90
22680;DHT22;11507;44.858;10.374;2022-12-24T01:48:58;7.80;99.90
22680;DHT22;11507;44.858;10.374;2022-12-24T01:51:31;7.80;99.90
22680;DHT22;11507;44.858;10.374;2022-12-24T01:54:06;7.90;99.90
22680;DHT22;11507;44.858;10.374;2022-12-24T01:56:37;7.90;99.90
22680;DHT22;11507;44.858;10.374;2022-12-24T01:59:12;8.00;99.90
22680;DHT22;11507;44.858;10.374;2022-12-24T02:01:39;7.90;99.90
22680;DHT22;11507;44.858;10.374;2022-12-24T02:04:11;8.00;99.90
22680;DHT22;11507;44.858;10.374;2022-12-24T02:06:38;8.00;99.90
22680;DHT22;11507;44.858;10.374;2022-12-24T02:09:03;8.00;99.90
22680;DHT22;11507;44.858;10.374;2022-12-24T02:11:30;8.00;99.90
22680;DHT22;11507;44.858;10.374;2022-12-24T02:13:57;8.00;99.90
22680;DHT22;11507;44.858;10.374;2022-12-24T02:19:32;7.90;99.90
22680;DHT22;11507;44.858;10.374;2022-12-24T02:25:00;7.90;99.90
22680;DHT22;11507;44.858;10.374;2022-12-24T02:27:48;7.90;99.90
22680;DHT22;11507;44.858;10.374;2022-12-24T02:30:23;7.90;99.90
22680;DHT22;11507;44.858;10.374;2022-12-24T02:33:03;7.90;99.90
22680;DHT22;11507;44.858;10.374;2022-12-24T02:36:00;7.90;99.90
22680;DHT22;11507;44.858;10.374;2022-12-24T02:41:21;7.90;99.90
22680;DHT22;11507;44.858;10.374;2022-12-24T02:43:49;7.80;99.90
22680;DHT22;11507;44.858;10.374;2022-12-24T02:46:19;7.90;99.90
22680;DHT22;11507;44.858;10.374;2022-12-24T02:48:48;7.90;99.90
22680;DHT22;11507;44.858;10.374;2022-12-24T02:51:15;7.90;99.90
22680;DHT22;11507;44.858;10.374;2022-12-24T02:53:41;7.90;99.90
22680;DHT22;11507;44.858;10.374;2022-12-24T03:10:03;7.90;99.90
22680;DHT22;11507;44.858;10.374;2022-12-24T03:13:13;7.90;99.90
22680;DHT22;11507;44.858;10.374;2022-12-24T03:15:40;7.80;99.90
22680;DHT22;11507;44.858;10.374;2022-12-24T03:18:08;7.80;99.90
22680;DHT22;11507;44.858;10.374;2022-12-24T03:20:48;7.80;99.90
22680;DHT22;11507;44.858;10.374;2022-12-24T03:23:15;7.90;99.90
22680;DHT22;11507;44.858;10.374;2022-12-24T03:25:43;7.80;99.90
22680;DHT22;11507;44.858;10.374;2022-12-24T03:28:12;7.90;99.90
22680;DHT22;11507;44.858;10.374;2022-12-24T03:30:41;7.80;99.90
22680;DHT22;11507;44.858;10.374;2022-12-24T03:33:09;7.90;99.90
22680;DHT22;11507;44.858;10.374;2022-12-24T03:35:35;7.80;99.90
22680;DHT22;11507;44.858;10.374;2022-12-24T03:38:01;7.80;99.90
22680;DHT22;11507;44.858;10.374;2022-12-24T03:40:26;7.80;99.90
22680;DHT22;11507;44.858;10.374;2022-12-24T03:42:52;7.80;99.90
22680;DHT22;11507;44.858;10.374;2022-12-24T03:45:18;7.80;99.90
22680;DHT22;11507;44.858;10.374;2022-12-24T03:47:44;7.80;99.90
22680;DHT22;11507;44.858;10.374;2022-12-24T03:50:10;7.80;99.90
22680;DHT22;11507;44.858;10.374;2022-12-24T03:52:35;7.90;99.90
22680;DHT22;11507;44.858;10.374;2022-12-24T03:55:01;7.80;99.90
22680;DHT22;11507;44.858;10.374;2022-12-24T03:57:28;7.90;99.90
22680;DHT22;11507;44.858;10.374;2022-12-24T03:59:54;7.90;99.90
22680;DHT22;11507;44.858;10.374;2022-12-24T04:02:20;7.80;99.90
22680;DHT22;11507;44.858;10.374;2022-12-24T04:04:45;7.90;99.90
22680;DHT22;11507;44.858;10.374;2022-12-24T04:07:12;7.90;99.90
22680;DHT22;11507;44.858;10.374;2022-12-24T04:09:38;7.90;99.90
22680;DHT22;11507;44.858;10.374;2022-12-24T04:12:05;7.90;99.90
22680;DHT22;11507;44.858;10.374;2022-12-24T04:14:31;7.90;99.90
22680;DHT22;11507;44.858;10.374;2022-12-24T04:16:58;7.90;99.90
22680;DHT22;11507;44.858;10.374;2022-12-24T04:19:24;7.90;99.90
22680;DHT22;11507;44.858;10.374;2022-12-24T04:21:50;7.90;99.90
22680;DHT22;11507;44.858;10.374;2022-12-24T04:24:15;7.90;99.90
22680;DHT22;11507;44.858;10.374;2022-12-24T04:26:41;7.90;99.90
22680;DHT22;11507;44.858;10.374;2022-12-24T04:29:07;7.90;99.90
22680;DHT22;11507;44.858;10.374;2022-12-24T04:31:33;7.90;99.90
22680;DHT22;11507;44.858;10.374;2022-12-24T04:33:58;7.90;99.90
22680;DHT22;11507;44.858;10.374;2022-12-24T04:36:24;7.90;99.90
22680;DHT22;11507;44.858;10.374;2022-12-24T04:38:50;7.90;99.90
22680;DHT22;11507;44.858;10.374;2022-12-24T04:41:19;7.90;99.90
22680;DHT22;11507;44.858;10.374;2022-12-24T04:43:45;7.90;99.90
22680;DHT22;11507;44.858;10.374;2022-12-24T04:46:17;7.90;99.90
22680;DHT22;11507;44.858;10.374;2022-12-24T04:48:45;7.90;99.90
22680;DHT22;11507;44.858;10.374;2022-12-24T04:51:13;7.90;99.90
22680;DHT22;11507;44.858;10.374;2022-12-24T04:53:40;7.90;99.90
22680;DHT22;11507;44.858;10.374;2022-12-24T04:56:15;7.80;99.90
22680;DHT22;11507;44.858;10.374;2022-12-24T04:58:41;7.90;99.90
22680;DHT22;11507;44.858;10.374;2022-12-24T05:01:17;7.90;99.90
22680;DHT22;11507;44.858;10.374;2022-12-24T05:03:44;7.90;99.90
22680;DHT22;11507;44.858;10.374;2022-12-24T05:06:10;7.90;99.90
22680;DHT22;11507;44.858;10.374;2022-12-24T05:08:36;7.90;99.90
22680;DHT22;11507;44.858;10.374;2022-12-24T05:11:03;7.90;99.90
22680;DHT22;11507;44.858;10.374;2022-12-24T05:13:29;7.90;99.90
22680;DHT22;11507;44.858;10.374;2022-12-24T05:15:55;7.90;99.90
22680;DHT22;11507;44.858;10.374;2022-12-24T05:18:21;7.90;99.90
22680;DHT22;11507;44.858;10.374;2022-12-24T05:20:48;7.90;99.90
22680;DHT22;11507;44.858;10.374;2022-12-24T05:23:19;7.90;99.90
22680;DHT22;11507;44.858;10.374;2022-12-24T05:26:08;7.90;99.90
22680;DHT22;11507;44.858;10.374;2022-12-24T05:28:53;7.90;99.90
22680;DHT22;11507;44.858;10.374;2022-12-24T05:31:21;7.80;99.90
22680;DHT22;11507;44.858;10.374;2022-12-24T05:33:47;7.90;99.90
22680;DHT22;11507;44.858;10.374;2022-12-24T05:36:14;7.90;99.90
22680;DHT22;11507;44.858;10.374;2022-12-24T05:38:40;7.90;99.90
22680;DHT22;11507;44.858;10.374;2022-12-24T05:41:06;7.90;99.90
22680;DHT22;11507;44.858;10.374;2022-12-24T05:43:36;7.90;99.90
22680;DHT22;11507;44.858;10.374;2022-12-24T05:46:05;7.90;99.90
22680;DHT22;11507;44.858;10.374;2022-12-24T05:48:31;7.90;99.90
22680;DHT22;11507;44.858;10.374;2022-12-24T05:50:57;7.90;99.90
22680;DHT22;11507;44.858;10.374;2022-12-24T05:53:23;7.90;99.90
22680;DHT22;11507;44.858;10.374;2022-12-24T05:55:51;7.90;99.90
22680;DHT22;11507;44.858;10.374;2022-12-24T05:58:17;7.90;99.90
22680;DHT22;11507;44.858;10.374;2022-12-24T06:00:44;7.90;99.90
22680;DHT22;11507;44.858;10.374;2022-12-24T06:03:10;7.90;99.90
22680;DHT22;11507;44.858;10.374;2022-12-24T06:05:36;7.90;99.90
22680;DHT22;11507;44.858;10.374;2022-12-24T06:08:02;7.90;99.90
22680;DHT22;11507;44.858;10.374;2022-12-24T06:10:28;7.90;99.90
22680;DHT22;11507;44.858;10.374;2022-12-24T06:12:55;7.90;99.90
22680;DHT22;11507;44.858;10.374;2022-12-24T06:15:21;7.90;99.90
22680;DHT22;11507;44.858;10.374;2022-12-24T06:17:49;7.90;99.90
22680;DHT22;11507;44.858;10.374;2022-12-24T06:20:14;7.90;99.90
22680;DHT22;11507;44.858;10.374;2022-12-24T06:22:40;7.90;99.90
22680;DHT22;11507;44.858;10.374;2022-12-24T06:25:06;7.90;99.90
22680;DHT22;11507;44.858;10.374;2022-12-24T06:27:32;7.90;99.90
22680;DHT22;11507;44.858;10.374;2022-12-24T06:29:58;7.90;99.90
22680;DHT22;11507;44.858;10.374;2022-12-24T06:32:24;7.90;99.90
22680;DHT22;11507;44.858;10.374;2022-12-24T06:34:49;7.90;99.90
22680;DHT22;11507;44.858;10.374;2022-12-24T06:37:15;7.90;99.90
22680;DHT22;11507;44.858;10.374;2022-12-24T06:39:47;7.90;99.90
22680;DHT22;11507;44.858;10.374;2022-12-24T06:42:13;7.90;99.90
22680;DHT22;11507;44.858;10.374;2022-12-24T06:44:39;8.00;99.90
22680;DHT22;11507;44.858;10.374;2022-12-24T06:47:05;7.90;99.90
22680;DHT22;11507;44.858;10.374;2022-12-24T06:49:30;7.90;99.90
22680;DHT22;11507;44.858;10.374;2022-12-24T06:51:56;7.90;99.90
22680;DHT22;11507;44.858;10.374;2022-12-24T06:54:23;7.90;99.90
22680;DHT22;11507;44.858;10.374;2022-12-24T06:56:49;7.90;99.90
22680;DHT22;11507;44.858;10.374;2022-12-24T06:59:15;7.90;99.90
22680;DHT22;11507;44.858;10.374;2022-12-24T07:01:41;7.90;99.90
22680;DHT22;11507;44.858;10.374;2022-12-24T07:04:07;7.90;99.90
22680;DHT22;11507;44.858;10.374;2022-12-24T07:06:32;7.90;99.90
22680;DHT22;11507;44.858;10.374;2022-12-24T07:08:58;7.90;99.90
22680;DHT22;11507;44.858;10.374;2022-12-24T07:11:24;7.90;99.90
22680;DHT22;11507;44.858;10.374;2022-12-24T07:13:52;7.90;99.90
22680;DHT22;11507;44.858;10.374;2022-12-24T07:16:18;7.90;99.90
22680;DHT22;11507;44.858;10.374;2022-12-24T07:18:44;8.00;99.90
22680;DHT22;11507;44.858;10.374;2022-12-24T07:21:10;8.00;99.90
22680;DHT22;11507;44.858;10.374;2022-12-24T07:23:35;8.00;99.90
22680;DHT22;11507;44.858;10.374;2022-12-24T07:26:03;8.00;99.90
22680;DHT22;11507;44.858;10.374;2022-12-24T07:28:29;8.00;99.90
22680;DHT22;11507;44.858;10.374;2022-12-24T07:30:55;8.00;99.90
22680;DHT22;11507;44.858;10.374;2022-12-24T07:33:24;8.00;99.90
22680;DHT22;11507;44.858;10.374;2022-12-24T07:36:01;8.00;99.90
22680;DHT22;11507;44.858;10.374;2022-12-24T07:38:29;8.10;99.90
22680;DHT22;11507;44.858;10.374;2022-12-24T07:40:56;8.10;99.90
22680;DHT22;11507;44.858;10.374;2022-12-24T07:43:23;8.10;99.90
22680;DHT22;11507;44.858;10.374;2022-12-24T07:45:49;8.20;99.90
22680;DHT22;11507;44.858;10.374;2022-12-24T07:48:15;8.20;99.90
22680;DHT22;11507;44.858;10.374;2022-12-24T07:50:41;8.20;99.90
22680;DHT22;11507;44.858;10.374;2022-12-24T07:53:07;8.20;99.90
22680;DHT22;11507;44.858;10.374;2022-12-24T07:55:34;8.30;99.90
22680;DHT22;11507;44.858;10.374;2022-12-24T07:58:00;8.30;99.90
22680;DHT22;11507;44.858;10.374;2022-12-24T08:00:25;8.30;99.90
22680;DHT22;11507;44.858;10.374;2022-12-24T08:02:52;8.40;99.90
22680;DHT22;11507;44.858;10.374;2022-12-24T08:05:18;8.40;99.90
22680;DHT22;11507;44.858;10.374;2022-12-24T08:07:44;8.40;99.90
22680;DHT22;11507;44.858;10.374;2022-12-24T08:10:09;8.50;99.90
22680;DHT22;11507;44.858;10.374;2022-12-24T08:12:35;8.50;99.90
22680;DHT22;11507;44.858;10.374;2022-12-24T08:15:02;8.50;99.90
22680;DHT22;11507;44.858;10.374;2022-12-24T08:17:28;8.50;99.90
22680;DHT22;11507;44.858;10.374;2022-12-24T08:19:54;8.50;99.90
22680;DHT22;11507;44.858;10.374;2022-12-24T08:22:19;8.50;99.90
22680;DHT22;11507;44.858;10.374;2022-12-24T08:24:45;8.50;99.90
22680;DHT22;11507;44.858;10.374;2022-12-24T08:27:11;8.50;99.90
22680;DHT22;11507;44.858;10.374;2022-12-24T08:29:37;8.50;99.90
22680;DHT22;11507;44.858;10.374;2022-12-24T08:32:03;8.50;99.90
22680;DHT22;11507;44.858;10.374;2022-12-24T08:34:29;8.60;99.90
22680;DHT22;11507;44.858;10.374;2022-12-24T08:36:55;8.60;99.90
22680;DHT22;11507;44.858;10.374;2022-12-24T08:39:21;8.60;99.90
22680;DHT22;11507;44.858;10.374;2022-12-24T08:41:46;8.70;99.90
22680;DHT22;11507;44.858;10.374;2022-12-24T08:44:12;8.70;99.90
22680;DHT22;11507;44.858;10.374;2022-12-24T08:46:38;8.70;99.90
22680;DHT22;11507;44.858;10.374;2022-12-24T08:49:04;8.80;99.90
22680;DHT22;11507;44.858;10.374;2022-12-24T08:51:30;8.80;99.90
22680;DHT22;11507;44.858;10.374;2022-12-24T08:53:56;8.90;99.90
22680;DHT22;11507;44.858;10.374;2022-12-24T08:56:22;8.90;99.90
22680;DHT22;11507;44.858;10.374;2022-12-24T08:58:48;8.90;99.90
22680;DHT22;11507;44.858;10.374;2022-12-24T09:01:16;9.00;99.90
22680;DHT22;11507;44.858;10.374;2022-12-24T09:03:44;9.00;99.90
22680;DHT22;11507;44.858;10.374;2022-12-24T09:06:12;9.00;99.90
22680;DHT22;11507;44.858;10.374;2022-12-24T09:08:39;9.10;99.90
22680;DHT22;11507;44.858;10.374;2022-12-24T09:11:06;9.10;99.90
22680;DHT22;11507;44.858;10.374;2022-12-24T09:13:32;9.20;99.90
22680;DHT22;11507;44.858;10.374;2022-12-24T09:16:00;9.30;99.90
22680;DHT22;11507;44.858;10.374;2022-12-24T09:18:26;9.30;99.90
22680;DHT22;11507;44.858;10.374;2022-12-24T09:21:02;9.30;99.90
22680;DHT22;11507;44.858;10.374;2022-12-24T09:23:29;9.30;99.90
22680;DHT22;11507;44.858;10.374;2022-12-24T09:25:55;9.30;99.90
22680;DHT22;11507;44.858;10.374;2022-12-24T09:28:22;9.40;99.90
22680;DHT22;11507;44.858;10.374;2022-12-24T09:31:01;9.40;99.90
22680;DHT22;11507;44.858;10.374;2022-12-24T09:33:30;9.40;99.90
22680;DHT22;11507;44.858;10.374;2022-12-24T09:35:56;9.40;99.90
22680;DHT22;11507;44.858;10.374;2022-12-24T09:38:22;9.30;99.90
22680;DHT22;11507;44.858;10.374;2022-12-24T09:40:49;9.40;99.90
22680;DHT22;11507;44.858;10.374;2022-12-24T09:43:20;9.40;99.90
22680;DHT22;11507;44.858;10.374;2022-12-24T09:46:08;9.40;99.90
22680;DHT22;11507;44.858;10.374;2022-12-24T09:48:41;9.40;99.90
22680;DHT22;11507;44.858;10.374;2022-12-24T09:51:15;9.50;99.90
22680;DHT22;11507;44.858;10.374;2022-12-24T09:53:56;9.50;99.90
22680;DHT22;11507;44.858;10.374;2022-12-24T09:56:44;9.60;99.90
22680;DHT22;11507;44.858;10.374;2022-12-24T09:59:17;9.60;99.90
22680;DHT22;11507;44.858;10.374;2022-12-24T10:01:45;9.60;99.90
22680;DHT22;11507;44.858;10.374;2022-12-24T10:04:18;9.60;99.90
22680;DHT22;11507;44.858;10.374;2022-12-24T10:12:46;9.80;99.90
22680;DHT22;11507;44.858;10.374;2022-12-24T10:15:35;9.80;99.90
22680;DHT22;11507;44.858;10.374;2022-12-24T10:18:34;9.80;99.90
22680;DHT22;11507;44.858;10.374;2022-12-24T10:21:23;9.80;99.90
22680;DHT22;11507;44.858;10.374;2022-12-24T10:24:10;9.80;99.90
22680;DHT22;11507;44.858;10.374;2022-12-24T10:26:45;9.90;99.90
22680;DHT22;11507;44.858;10.374;2022-12-24T10:29:17;9.80;99.90
22680;DHT22;11507;44.858;10.374;2022-12-24T10:31:52;9.90;99.90
22680;DHT22;11507;44.858;10.374;2022-12-24T10:34:23;9.90;99.90
22680;DHT22;11507;44.858;10.374;2022-12-24T10:36:49;9.90;99.90
22680;DHT22;11507;44.858;10.374;2022-12-24T10:39:21;9.90;99.90
22680;DHT22;11507;44.858;10.374;2022-12-24T10:41:51;9.90;99.90
22680;DHT22;11507;44.858;10.374;2022-12-24T10:44:21;9.80;99.90
22680;DHT22;11507;44.858;10.374;2022-12-24T10:46:48;9.80;99.90
22680;DHT22;11507;44.858;10.374;2022-12-24T10:49:18;9.70;99.90
22680;DHT22;11507;44.858;10.374;2022-12-24T10:52:18;9.70;99.90
22680;DHT22;11507;44.858;10.374;2022-12-24T10:57:36;9.60;99.90
22680;DHT22;11507;44.858;10.374;2022-12-24T11:00:04;9.70;99.90
22680;DHT22;11507;44.858;10.374;2022-12-24T11:02:36;9.60;99.90
22680;DHT22;11507;44.858;10.374;2022-12-24T11:05:25;9.60;99.90
22680;DHT22;11507;44.858;10.374;2022-12-24T11:07:59;9.70;99.90
22680;DHT22;11507;44.858;10.374;2022-12-24T11:10:27;9.80;99.90
22680;DHT22;11507;44.858;10.374;2022-12-24T11:12:53;9.80;99.90
22680;DHT22;11507;44.858;10.374;2022-12-24T11:15:21;9.80;99.90
22680;DHT22;11507;44.858;10.374;2022-12-24T11:17:59;9.70;99.90
22680;DHT22;11507;44.858;10.374;2022-12-24T11:20:33;9.80;99.90
22680;DHT22;11507;44.858;10.374;2022-12-24T11:23:01;9.80;99.90
22680;DHT22;11507;44.858;10.374;2022-12-24T11:25:29;9.80;99.90
22680;DHT22;11507;44.858;10.374;2022-12-24T11:28:15;9.80;99.90
22680;DHT22;11507;44.858;10.374;2022-12-24T11:30:59;9.80;99.90
22680;DHT22;11507;44.858;10.374;2022-12-24T11:33:25;9.80;99.90
22680;DHT22;11507;44.858;10.374;2022-12-24T11:36:00;9.80;99.90
22680;DHT22;11507;44.858;10.374;2022-12-24T11:38:29;9.90;99.90
22680;DHT22;11507;44.858;10.374;2022-12-24T11:41:02;9.90;99.90
22680;DHT22;11507;44.858;10.374;2022-12-24T11:43:39;9.90;99.90
22680;DHT22;11507;44.858;10.374;2022-12-24T11:46:17;9.80;99.90
22680;DHT22;11507;44.858;10.374;2022-12-24T11:48:44;9.80;99.90
22680;DHT22;11507;44.858;10.374;2022-12-24T11:51:20;9.80;99.90
22680;DHT22;11507;44.858;10.374;2022-12-24T11:56:42;9.80;99.90
22680;DHT22;11507;44.858;10.374;2022-12-24T12:04:53;9.60;99.90
22680;DHT22;11507;44.858;10.374;2022-12-24T12:07:29;9.60;99.90
22680;DHT22;11507;44.858;10.374;2022-12-24T12:10:03;9.60;99.90
22680;DHT22;11507;44.858;10.374;2022-12-24T12:12:34;9.50;99.90
22680;DHT22;11507;44.858;10.374;2022-12-24T12:15:22;9.60;99.90
22680;DHT22;11507;44.858;10.374;2022-12-24T12:17:56;9.60;99.90
22680;DHT22;11507;44.858;10.374;2022-12-24T12:20:32;9.60;99.90
22680;DHT22;11507;44.858;10.374;2022-12-24T12:26:00;9.60;99.90
22680;DHT22;11507;44.858;10.374;2022-12-24T12:28:56;9.60;99.90
22680;DHT22;11507;44.858;10.374;2022-12-24T12:31:43;9.50;99.90
22680;DHT22;11507;44.858;10.374;2022-12-24T12:34:23;9.50;99.90
22680;DHT22;11507;44.858;10.374;2022-12-24T12:37:01;9.40;99.90
22680;DHT22;11507;44.858;10.374;2022-12-24T12:39:30;9.40;99.90
22680;DHT22;11507;44.858;10.374;2022-12-24T12:50:44;9.50;99.90
22680;DHT22;11507;44.858;10.374;2022-12-24T12:56:32;9.70;99.90
22680;DHT22;11507;44.858;10.374;2022-12-24T12:58:42;9.70;99.90
22680;DHT22;11507;44.858;10.374;2022-12-24T13:01:15;9.70;99.90
22680;DHT22;11507;44.858;10.374;2022-12-24T13:12:23;9.80;99.90
22680;DHT22;11507;44.858;10.374;2022-12-24T13:17:38;9.80;99.90
22680;DHT22;11507;44.858;10.374;2022-12-24T13:20:24;9.80;99.90
22680;DHT22;11507;44.858;10.374;2022-12-24T13:23:08;9.80;99.90
22680;DHT22;11507;44.858;10.374;2022-12-24T13:25:45;9.80;99.90
22680;DHT22;11507;44.858;10.374;2022-12-24T13:30:49;9.70;99.90
22680;DHT22;11507;44.858;10.374;2022-12-24T13:36:04;9.60;99.90
22680;DHT22;11507;44.858;10.374;2022-12-24T13:38:50;9.60;99.90
22680;DHT22;11507;44.858;10.374;2022-12-24T13:47:04;9.60;99.90
22680;DHT22;11507;44.858;10.374;2022-12-24T13:49:43;9.60;99.90
22680;DHT22;11507;44.858;10.374;2022-12-24T13:54:46;9.60;99.90
22680;DHT22;11507;44.858;10.374;2022-12-24T13:57:36;9.50;99.90
22680;DHT22;11507;44.858;10.374;2022-12-24T14:02:43;9.60;99.90
22680;DHT22;11507;44.858;10.374;2022-12-24T14:05:18;9.60;99.90
22680;DHT22;11507;44.858;10.374;2022-12-24T14:07:47;9.60;99.90
22680;DHT22;11507;44.858;10.374;2022-12-24T14:10:23;9.50;99.90
22680;DHT22;11507;44.858;10.374;2022-12-24T14:12:51;9.60;99.90
22680;DHT22;11507;44.858;10.374;2022-12-24T14:18:20;9.60;99.90
22680;DHT22;11507;44.858;10.374;2022-12-24T14:20:52;9.60;99.90
22680;DHT22;11507;44.858;10.374;2022-12-24T14:26:00;9.50;99.90
22680;DHT22;11507;44.858;10.374;2022-12-24T14:28:33;9.60;99.90
22680;DHT22;11507;44.858;10.374;2022-12-24T14:31:02;9.50;99.90
22680;DHT22;11507;44.858;10.374;2022-12-24T14:33:32;9.50;99.90
22680;DHT22;11507;44.858;10.374;2022-12-24T14:35:59;9.50;99.90
22680;DHT22;11507;44.858;10.374;2022-12-24T14:38:27;9.50;99.90
22680;DHT22;11507;44.858;10.374;2022-12-24T14:46:57;9.40;99.90
22680;DHT22;11507;44.858;10.374;2022-12-24T14:58:29;9.30;99.90
22680;DHT22;11507;44.858;10.374;2022-12-24T15:01:21;9.30;99.90
22680;DHT22;11507;44.858;10.374;2022-12-24T15:06:53;9.40;99.90
22680;DHT22;11507;44.858;10.374;2022-12-24T15:09:25;9.40;99.90
22680;DHT22;11507;44.858;10.374;2022-12-24T15:11:55;9.40;99.90
22680;DHT22;11507;44.858;10.374;2022-12-24T15:14:23;9.40;99.90
22680;DHT22;11507;44.858;10.374;2022-12-24T15:16:56;9.30;99.90
22680;DHT22;11507;44.858;10.374;2022-12-24T15:19:46;9.40;99.90
22680;DHT22;11507;44.858;10.374;2022-12-24T15:22:31;9.30;99.90
22680;DHT22;11507;44.858;10.374;2022-12-24T15:24:57;9.30;99.90
22680;DHT22;11507;44.858;10.374;2022-12-24T15:27:24;9.30;99.90
22680;DHT22;11507;44.858;10.374;2022-12-24T15:29:54;9.30;99.90
22680;DHT22;11507;44.858;10.374;2022-12-24T15:32:22;9.30;99.90
22680;DHT22;11507;44.858;10.374;2022-12-24T15:34:52;9.30;99.90
22680;DHT22;11507;44.858;10.374;2022-12-24T15:37:33;9.30;99.90
22680;DHT22;11507;44.858;10.374;2022-12-24T15:42:31;9.20;99.90
22680;DHT22;11507;44.858;10.374;2022-12-24T15:45:12;9.20;99.90
22680;DHT22;11507;44.858;10.374;2022-12-24T15:47:52;9.20;99.90
22680;DHT22;11507;44.858;10.374;2022-12-24T15:50:33;9.20;99.90
22680;DHT22;11507;44.858;10.374;2022-12-24T15:53:07;9.20;99.90
22680;DHT22;11507;44.858;10.374;2022-12-24T15:55:39;9.20;99.90
22680;DHT22;11507;44.858;10.374;2022-12-24T16:01:05;9.20;99.90
22680;DHT22;11507;44.858;10.374;2022-12-24T16:06:15;9.20;99.90
22680;DHT22;11507;44.858;10.374;2022-12-24T16:08:42;9.20;99.90
22680;DHT22;11507;44.858;10.374;2022-12-24T16:14:12;9.20;99.90
22680;DHT22;11507;44.858;10.374;2022-12-24T16:16:41;9.20;99.90
22680;DHT22;11507;44.858;10.374;2022-12-24T16:19:17;9.20;99.90
22680;DHT22;11507;44.858;10.374;2022-12-24T16:21:44;9.20;99.90
22680;DHT22;11507;44.858;10.374;2022-12-24T16:24:21;9.20;99.90
22680;DHT22;11507;44.858;10.374;2022-12-24T16:26:48;9.10;99.90
22680;DHT22;11507;44.858;10.374;2022-12-24T16:29:16;9.10;99.90
22680;DHT22;11507;44.858;10.374;2022-12-24T16:31:49;9.10;99.90
22680;DHT22;11507;44.858;10.374;2022-12-24T16:34:18;9.10;99.90
22680;DHT22;11507;44.858;10.374;2022-12-24T16:36:45;9.10;99.90
22680;DHT22;11507;44.858;10.374;2022-12-24T16:39:32;9.10;99.90
22680;DHT22;11507;44.858;10.374;2022-12-24T16:42:00;9.10;99.90
22680;DHT22;11507;44.858;10.374;2022-12-24T16:44:46;9.10;99.90
22680;DHT22;11507;44.858;10.374;2022-12-24T16:47:24;9.10;99.90
22680;DHT22;11507;44.858;10.374;2022-12-24T16:49:51;9.10;99.90
22680;DHT22;11507;44.858;10.374;2022-12-24T16:52:19;9.10;99.90
22680;DHT22;11507;44.858;10.374;2022-12-24T16:54:47;9.10;99.90
22680;DHT22;11507;44.858;10.374;2022-12-24T16:57:14;9.10;99.90
22680;DHT22;11507;44.858;10.374;2022-12-24T16:59:39;9.10;99.90
22680;DHT22;11507;44.858;10.374;2022-12-24T17:02:06;9.10;99.90
22680;DHT22;11507;44.858;10.374;2022-12-24T17:04:33;9.10;99.90
22680;DHT22;11507;44.858;10.374;2022-12-24T17:07:00;9.10;99.90
22680;DHT22;11507;44.858;10.374;2022-12-24T17:09:27;9.10;99.90
22680;DHT22;11507;44.858;10.374;2022-12-24T17:11:52;9.10;99.90
22680;DHT22;11507;44.858;10.374;2022-12-24T17:14:18;9.10;99.90
22680;DHT22;11507;44.858;10.374;2022-12-24T17:16:44;9.10;99.90
22680;DHT22;11507;44.858;10.374;2022-12-24T17:19:10;9.10;99.90
22680;DHT22;11507;44.858;10.374;2022-12-24T17:21:36;9.10;99.90
22680;DHT22;11507;44.858;10.374;2022-12-24T17:24:02;9.10;99.90
22680;DHT22;11507;44.858;10.374;2022-12-24T17:26:29;9.10;99.90
22680;DHT22;11507;44.858;10.374;2022-12-24T17:28:55;9.10;99.90
22680;DHT22;11507;44.858;10.374;2022-12-24T17:31:21;9.10;99.90
22680;DHT22;11507;44.858;10.374;2022-12-24T17:33:49;9.10;99.90
22680;DHT22;11507;44.858;10.374;2022-12-24T17:36:15;9.10;99.90
22680;DHT22;11507;44.858;10.374;2022-12-24T17:38:41;9.00;99.90
22680;DHT22;11507;44.858;10.374;2022-12-24T17:41:10;9.00;99.90
22680;DHT22;11507;44.858;10.374;2022-12-24T17:43:38;9.00;99.90